Time;durP1;ratioP1;P1;durP2;ratioP2;P2;SDS_P1;SDS_P2;PMS_P1;PMS_P2;Temp;Humidity;BMP_temperature;BMP_pressure;BME280_temperature;BME280_humidity;BME280_pressure;Samples;Min_cycle;Max_cycle;Signal;HPM_P1;HPM_P2
2024/04/04 00:05:00;;;;;;;0.47;0.47;;;;;;;;;;10283366;28;20528;-83
2024/04/04 00:10:03;;;;;;;1.23;0.80;;;;;;;;;;10277666;28;20054;-83
2024/04/04 00:15:10;;;;;;;1.20;0.75;;;;;;;;;;10298702;28;20710;-85
2024/04/04 00:20:14;;;;;;;1.83;0.93;;;;;;;;;;10278972;28;20511;-83
2024/04/04 00:25:17;;;;;;;0.70;0.60;;;;;;;;;;10282836;28;20137;-84
2024/04/04 00:30:22;;;;;;;1.65;0.70;;;;;;;;;;10255824;28;20065;-86
2024/04/04 00:35:24;;;;;;;1.30;0.60;;;;;;;;;;10293033;28;20051;-84
2024/04/04 00:40:28;;;;;;;1.42;0.70;;;;;;;;;;10280646;28;20733;-82
2024/04/04 00:45:32;;;;;;;1.40;0.50;;;;;;;;;;10285378;28;20077;-85
2024/04/04 00:50:35;;;;;;;1.63;0.70;;;;;;;;;;10264318;28;20082;-83
2024/04/04 00:55:37;;;;;;;1.38;0.60;;;;;;;;;;10261862;28;20069;-86
2024/04/04 01:00:41;;;;;;;0.95;0.60;;;;;;;;;;10268384;28;20084;-84
2024/04/04 01:05:44;;;;;;;1.23;0.70;;;;;;;;;;10291991;28;20117;-84
2024/04/04 01:10:47;;;;;;;0.43;0.40;;;;;;;;;;10260995;28;20121;-83
2024/04/04 01:15:51;;;;;;;1.63;0.60;;;;;;;;;;10271058;28;20198;-83
2024/04/04 01:20:53;;;;;;;0.68;0.65;;;;;;;;;;10257149;28;20144;-86
2024/04/04 01:25:57;;;;;;;1.95;0.57;;;;;;;;;;10300005;28;20121;-84
2024/04/04 01:30:59;;;;;;;0.80;0.50;;;;;;;;;;10294447;28;20181;-83
2024/04/04 01:36:02;;;;;;;0.77;0.60;;;;;;;;;;10250327;28;20641;-86
2024/04/04 01:41:06;;;;;;;0.85;0.40;;;;;;;;;;10276804;28;20054;-83
2024/04/04 01:46:09;;;;;;;0.43;0.38;;;;;;;;;;10268181;28;20050;-83
2024/04/04 01:51:12;;;;;;;2.05;0.50;;;;;;;;;;10283403;28;20169;-83
2024/04/04 01:56:15;;;;;;;1.05;0.50;;;;;;;;;;10290539;28;20116;-83
2024/04/04 02:01:18;;;;;;;0.77;0.40;;;;;;;;;;10270225;28;20070;-83
2024/04/04 02:06:20;;;;;;;0.57;0.40;;;;;;;;;;10261493;28;20073;-84
2024/04/04 02:11:24;;;;;;;1.48;0.60;;;;;;;;;;10270925;28;20908;-81
2024/04/04 02:16:27;;;;;;;0.93;0.60;;;;;;;;;;10248158;28;20047;-81
2024/04/04 02:21:29;;;;;;;1.38;0.60;;;;;;;;;;10289493;28;20069;-81
2024/04/04 02:26:33;;;;;;;2.92;0.50;;;;;;;;;;10252283;28;20137;-81
2024/04/04 02:31:35;;;;;;;0.77;0.40;;;;;;;;;;10261609;28;20051;-81
2024/04/04 02:36:38;;;;;;;0.52;0.52;;;;;;;;;;10275572;28;20100;-81
2024/04/04 02:41:42;;;;;;;0.70;0.40;;;;;;;;;;10276856;28;20042;-81
2024/04/04 02:46:45;;;;;;;0.55;0.35;;;;;;;;;;10274429;28;20046;-81
2024/04/04 02:51:47;;;;;;;1.02;0.40;;;;;;;;;;10273088;28;20046;-81
2024/04/04 02:56:51;;;;;;;0.70;0.50;;;;;;;;;;10261087;28;20093;-81
2024/04/04 03:01:53;;;;;;;0.80;0.60;;;;;;;;;;10296569;28;20093;-81
2024/04/04 03:06:56;;;;;;;0.95;0.40;;;;;;;;;;10258210;28;20138;-81
2024/04/04 03:12:00;;;;;;;0.68;0.40;;;;;;;;;;10272850;28;20050;-80
2024/04/04 03:17:03;;;;;;;0.35;0.35;;;;;;;;;;10265438;28;20042;-81
2024/04/04 03:22:06;;;;;;;0.63;0.40;;;;;;;;;;10276634;28;20109;-81
2024/04/04 03:27:09;;;;;;;0.73;0.30;;;;;;;;;;10279185;28;20039;-81
2024/04/04 03:32:12;;;;;;;1.08;0.45;;;;;;;;;;10295897;28;20054;-80
2024/04/04 03:37:15;;;;;;;2.03;0.38;;;;;;;;;;10272230;28;20048;-81
2024/04/04 03:42:18;;;;;;;0.75;0.55;;;;;;;;;;10270247;28;20054;-80
2024/04/04 03:47:21;;;;;;;3.30;0.40;;;;;;;;;;10294309;28;20047;-80
2024/04/04 03:52:23;;;;;;;1.05;0.45;;;;;;;;;;10278794;28;20193;-81
2024/04/04 03:57:27;;;;;;;0.40;0.40;;;;;;;;;;10271649;28;20035;-80
2024/04/04 04:02:30;;;;;;;2.50;0.50;;;;;;;;;;10298785;28;20057;-80
2024/04/04 04:07:32;;;;;;;3.38;0.52;;;;;;;;;;10261640;28;20085;-81
2024/04/04 04:12:36;;;;;;;2.58;0.80;;;;;;;;;;10291898;28;20043;-80
2024/04/04 04:17:39;;;;;;;2.70;0.82;;;;;;;;;;10288184;28;20038;-80
2024/04/04 04:22:41;;;;;;;1.58;0.73;;;;;;;;;;10281638;28;20046;-80
2024/04/04 04:27:45;;;;;;;3.97;1.00;;;;;;;;;;10267893;28;20586;-80
2024/04/04 04:32:47;;;;;;;3.38;0.98;;;;;;;;;;10267118;28;20079;-80
2024/04/04 04:37:50;;;;;;;2.15;0.70;;;;;;;;;;10270905;28;20053;-81
2024/04/04 04:42:57;;;;;;;5.15;1.00;;;;;;;;;;10279327;28;20576;-81
2024/04/04 04:48:03;;;;;;;2.67;0.93;;;;;;;;;;10271848;28;20189;-81
2024/04/04 04:53:05;;;;;;;3.65;0.85;;;;;;;;;;10259723;28;20055;-81
2024/04/04 04:58:09;;;;;;;3.30;0.70;;;;;;;;;;10255536;28;20101;-81
2024/04/04 05:03:20;;;;;;;4.28;1.38;;;;;;;;;;10275859;28;20077;-81
2024/04/04 05:08:22;;;;;;;4.03;1.27;;;;;;;;;;10269874;28;20046;-80
2024/04/04 05:13:29;;;;;;;3.42;1.00;;;;;;;;;;10280989;28;20150;-80
2024/04/04 05:18:31;;;;;;;4.15;1.10;;;;;;;;;;10295166;28;20051;-80
2024/04/04 05:23:34;;;;;;;3.53;1.13;;;;;;;;;;10255494;28;20050;-81
2024/04/04 05:28:38;;;;;;;2.83;1.10;;;;;;;;;;10257489;28;20055;-81
2024/04/04 05:33:40;;;;;;;3.60;0.98;;;;;;;;;;10262454;28;20149;-80
2024/04/04 05:38:43;;;;;;;2.50;0.93;;;;;;;;;;10278459;28;20133;-80
2024/04/04 05:43:51;;;;;;;2.17;0.88;;;;;;;;;;10286877;28;20050;-80
2024/04/04 05:48:53;;;;;;;3.97;1.45;;;;;;;;;;10291423;28;20050;-79
2024/04/04 05:53:55;;;;;;;4.47;1.35;;;;;;;;;;10247546;28;20062;-79
2024/04/04 05:59:02;;;;;;;2.42;0.82;;;;;;;;;;10268275;28;20049;-79
2024/04/04 06:04:04;;;;;;;1.92;1.00;;;;;;;;;;10268203;28;20046;-79
2024/04/04 06:09:11;;;;;;;5.25;1.38;;;;;;;;;;10266288;28;20093;-80
2024/04/04 06:14:15;;;;;;;2.45;1.05;;;;;;;;;;10296417;28;20086;-79
2024/04/04 06:19:17;;;;;;;2.28;0.90;;;;;;;;;;10266155;28;20074;-80
2024/04/04 06:24:24;;;;;;;1.20;0.85;;;;;;;;;;10271011;28;20098;-79
2024/04/04 06:29:28;;;;;;;1.55;0.82;;;;;;;;;;10278032;28;20050;-80
2024/04/04 06:34:30;;;;;;;1.75;0.82;;;;;;;;;;10296298;28;20195;-80
2024/04/04 06:39:35;;;;;;;3.28;1.00;;;;;;;;;;10290468;28;20042;-80
2024/04/04 06:44:39;;;;;;;1.65;0.80;;;;;;;;;;10291863;28;20054;-80
2024/04/04 06:49:41;;;;;;;2.47;0.65;;;;;;;;;;10278717;28;20256;-80
2024/04/04 06:54:46;;;;;;;3.22;1.02;;;;;;;;;;10279480;28;20149;-79
2024/04/04 06:59:50;;;;;;;3.35;0.60;;;;;;;;;;10288309;28;20046;-79
2024/04/04 07:05:31;;;;;;;1.20;0.55;;;;;;;;;;10281673;28;20050;-83
2024/04/04 07:10:58;;;;;;;1.17;0.50;;;;;;;;;;10261998;28;20061;-82
2024/04/04 07:28:52;;;;;;;0.98;0.50;;;;;;;;;;10283511;28;20452;-83
2024/04/04 07:33:54;;;;;;;3.40;0.80;;;;;;;;;;10298256;28;20057;-83
2024/04/04 08:02:50;;;;;;;0.98;0.52;;;;;;;;;;10469087;27;20126;-83
2024/04/04 08:07:53;;;;;;;2.30;0.63;;;;;;;;;;10421294;28;20051;-83
2024/04/04 08:12:56;;;;;;;1.15;0.70;;;;;;;;;;10434871;28;20830;-83
2024/04/04 08:18:32;;;;;;;1.05;0.60;;;;;;;;;;10440895;28;20033;-83
2024/04/04 08:24:05;;;;;;;0.95;0.70;;;;;;;;;;10231329;28;20043;-84
2024/04/04 08:29:09;;;;;;;2.20;0.60;;;;;;;;;;10281231;28;20624;-83
2024/04/04 08:34:13;;;;;;;1.70;0.80;;;;;;;;;;10432901;28;20154;-83
2024/04/04 08:39:16;;;;;;;0.95;0.50;;;;;;;;;;10423907;28;20086;-83
2024/04/04 08:44:18;;;;;;;1.27;0.50;;;;;;;;;;10425426;28;20041;-83
2024/04/04 08:49:24;;;;;;;0.82;0.55;;;;;;;;;;10418450;28;20041;-82
2024/04/04 08:54:27;;;;;;;1.42;0.45;;;;;;;;;;10422298;28;20043;-82
2024/04/04 08:59:47;;;;;;;1.35;0.50;;;;;;;;;;10423769;28;20498;-83
2024/04/04 09:04:51;;;;;;;2.63;0.60;;;;;;;;;;10388681;28;20616;-83
2024/04/04 09:09:54;;;;;;;0.63;0.43;;;;;;;;;;10392110;28;20053;-82
2024/04/04 09:14:57;;;;;;;0.73;0.30;;;;;;;;;;10400607;28;20262;-83
2024/04/04 09:20:01;;;;;;;1.65;0.43;;;;;;;;;;10397466;28;20060;-83
2024/04/04 09:25:04;;;;;;;0.85;0.57;;;;;;;;;;10411752;28;20136;-82
2024/04/04 09:30:12;;;;;;;0.90;0.30;;;;;;;;;;10415790;28;20135;-82
2024/04/04 09:35:17;;;;;;;1.00;0.40;;;;;;;;;;10413738;28;20045;-82
2024/04/04 09:40:22;;;;;;;1.08;0.40;;;;;;;;;;10413919;28;20099;-83
2024/04/04 09:45:28;;;;;;;2.97;0.55;;;;;;;;;;10394951;28;20045;-83
2024/04/04 09:50:32;;;;;;;0.70;0.32;;;;;;;;;;10392747;28;20041;-82
2024/04/04 09:55:46;;;;;;;0.90;0.40;;;;;;;;;;10400639;28;20574;-82
2024/04/04 10:00:48;;;;;;;0.90;0.45;;;;;;;;;;10406024;28;20063;-83
2024/04/04 10:05:57;;;;;;;1.20;0.50;;;;;;;;;;10390996;28;20075;-83
2024/04/04 10:11:05;;;;;;;2.58;0.47;;;;;;;;;;10393556;28;20040;-82
2024/04/04 10:16:08;;;;;;;0.25;0.25;;;;;;;;;;10397532;28;20041;-82
2024/04/04 10:21:12;;;;;;;0.57;0.30;;;;;;;;;;10393823;28;20693;-82
2024/04/04 10:26:21;;;;;;;1.23;0.40;;;;;;;;;;10392736;28;20044;-82
2024/04/04 10:31:24;;;;;;;0.43;0.30;;;;;;;;;;10411648;28;20647;-81
2024/04/04 10:36:42;;;;;;;1.05;0.40;;;;;;;;;;10402879;28;20041;-82
2024/04/04 10:47:58;;;;;;;0.30;0.20;;;;;;;;;;10398020;28;20058;-82
2024/04/04 10:53:10;;;;;;;0.50;0.30;;;;;;;;;;10400636;28;20586;-82
2024/04/04 10:58:33;;;;;;;0.30;0.30;;;;;;;;;;10399317;28;20048;-82
2024/04/04 11:03:43;;;;;;;2.15;0.50;;;;;;;;;;10391183;28;20951;-82
2024/04/04 11:08:54;;;;;;;0.52;0.30;;;;;;;;;;10403828;28;20749;-82
2024/04/04 11:14:00;;;;;;;1.20;0.47;;;;;;;;;;10402610;28;20151;-82
2024/04/04 11:19:03;;;;;;;2.25;0.50;;;;;;;;;;10397366;28;20045;-84
2024/04/04 11:24:15;;;;;;;0.70;0.60;;;;;;;;;;10399905;28;20040;-88
2024/04/04 11:29:17;;;;;;;1.73;0.50;;;;;;;;;;10425987;23;20045;-75
2024/04/04 11:34:21;;;;;;;0.80;0.57;;;;;;;;;;10356582;28;20048;-75
2024/04/04 11:39:25;;;;;;;1.05;0.40;;;;;;;;;;10343594;28;20043;-75
2024/04/04 11:44:27;;;;;;;4.47;0.50;;;;;;;;;;10314090;28;20141;-75
2024/04/04 11:49:30;;;;;;;0.20;0.20;;;;;;;;;;10311287;28;20059;-75
2024/04/04 11:54:34;;;;;;;0.35;0.22;;;;;;;;;;10315739;28;20464;-75
2024/04/04 11:59:36;;;;;;;0.68;0.40;;;;;;;;;;10300825;28;20080;-74
2024/04/04 12:04:42;;;;;;;1.13;0.28;;;;;;;;;;10313293;28;20049;-74
2024/04/04 12:09:46;;;;;;;0.20;0.20;;;;;;;;;;10311125;28;20121;-75
2024/04/04 12:14:49;;;;;;;0.50;0.22;;;;;;;;;;10313300;28;20065;-75
2024/04/04 12:19:51;;;;;;;0.20;0.10;;;;;;;;;;10309075;28;20685;-74
2024/04/04 12:24:55;;;;;;;0.30;0.20;;;;;;;;;;10311852;28;20129;-75
2024/04/04 12:29:57;;;;;;;0.15;0.15;;;;;;;;;;10313704;28;20426;-74
2024/04/04 12:35:00;;;;;;;0.30;0.25;;;;;;;;;;10312836;28;20057;-75
2024/04/04 12:40:05;;;;;;;0.60;0.15;;;;;;;;;;10317791;28;20035;-74
2024/04/04 12:45:08;;;;;;;0.20;0.10;;;;;;;;;;10317113;28;20787;-75
2024/04/04 12:50:10;;;;;;;0.30;0.22;;;;;;;;;;10320025;28;20129;-75
2024/04/04 12:55:14;;;;;;;0.20;0.17;;;;;;;;;;10306496;28;20076;-75
2024/04/04 13:00:19;;;;;;;0.20;0.20;;;;;;;;;;10324071;28;20053;-75
2024/04/04 13:05:22;;;;;;;0.22;0.22;;;;;;;;;;10317157;28;20039;-75
2024/04/04 13:10:25;;;;;;;0.30;0.30;;;;;;;;;;10307034;28;20045;-75
2024/04/04 13:15:28;;;;;;;1.00;0.30;;;;;;;;;;10318698;28;20043;-74
2024/04/04 13:20:30;;;;;;;0.45;0.25;;;;;;;;;;10298640;28;20133;-75
2024/04/04 13:25:34;;;;;;;0.45;0.20;;;;;;;;;;10299685;28;20046;-75
2024/04/04 13:30:37;;;;;;;0.75;0.40;;;;;;;;;;10318726;28;20118;-75
2024/04/04 13:35:40;;;;;;;0.47;0.38;;;;;;;;;;10316505;28;20056;-75
2024/04/04 13:40:44;;;;;;;0.30;0.30;;;;;;;;;;10302668;28;20050;-74
2024/04/04 13:45:46;;;;;;;0.47;0.20;;;;;;;;;;10305456;28;20044;-74
2024/04/04 13:50:49;;;;;;;1.25;0.30;;;;;;;;;;10314101;28;20035;-74
2024/04/04 13:55:53;;;;;;;3.67;0.50;;;;;;;;;;10335146;28;20053;-74
2024/04/04 14:00:55;;;;;;;0.90;0.38;;;;;;;;;;10323403;28;20497;-74
2024/04/04 14:05:58;;;;;;;2.17;0.50;;;;;;;;;;10323056;28;20460;-74
2024/04/04 14:11:02;;;;;;;2.28;0.47;;;;;;;;;;10334015;28;20402;-74
2024/04/04 14:16:06;;;;;;;2.38;0.40;;;;;;;;;;10327373;28;20141;-74
2024/04/04 14:21:10;;;;;;;2.35;0.65;;;;;;;;;;10333036;28;20490;-74
2024/04/04 14:26:16;;;;;;;2.58;0.60;;;;;;;;;;10327244;28;20040;-74
2024/04/04 14:31:19;;;;;;;3.75;0.85;;;;;;;;;;10325698;28;20061;-74
2024/04/04 14:36:21;;;;;;;1.67;0.68;;;;;;;;;;10325620;28;20476;-74
2024/04/04 14:41:25;;;;;;;2.45;0.82;;;;;;;;;;10367304;28;20707;-75
2024/04/04 14:46:28;;;;;;;3.13;0.90;;;;;;;;;;10361112;28;20286;-74
2024/04/04 14:51:30;;;;;;;2.78;1.05;;;;;;;;;;10359938;28;20264;-75
2024/04/04 14:56:34;;;;;;;3.10;0.82;;;;;;;;;;10365354;28;20080;-75
2024/04/04 15:01:36;;;;;;;2.75;0.80;;;;;;;;;;10362400;28;20041;-74
2024/04/04 15:06:39;;;;;;;2.30;0.80;;;;;;;;;;10339279;28;20665;-74
2024/04/04 15:11:42;;;;;;;4.93;1.13;;;;;;;;;;10355591;28;20225;-74
2024/04/04 15:16:45;;;;;;;3.08;0.80;;;;;;;;;;10337799;28;20046;-74
2024/04/04 15:21:47;;;;;;;3.97;1.10;;;;;;;;;;10335698;28;20386;-74
2024/04/04 15:26:51;;;;;;;6.50;0.88;;;;;;;;;;10354869;28;20050;-74
2024/04/04 15:31:53;;;;;;;4.90;1.00;;;;;;;;;;10348733;28;20374;-74
2024/04/04 15:36:55;;;;;;;3.17;1.10;;;;;;;;;;10354078;28;20045;-74
2024/04/04 15:42:00;;;;;;;4.78;1.13;;;;;;;;;;10356603;28;20768;-74
2024/04/04 15:47:02;;;;;;;3.60;1.35;;;;;;;;;;10359925;28;20052;-74
2024/04/04 15:52:05;;;;;;;6.80;1.70;;;;;;;;;;10350597;28;20042;-74
2024/04/04 15:57:09;;;;;;;3.88;1.17;;;;;;;;;;10348227;28;20034;-74
2024/04/04 16:02:11;;;;;;;3.55;1.25;;;;;;;;;;10353124;28;20042;-74
2024/04/04 16:07:13;;;;;;;5.80;1.42;;;;;;;;;;10347601;28;20077;-74
2024/04/04 16:12:18;;;;;;;4.95;1.48;;;;;;;;;;10359387;28;20814;-74
2024/04/04 16:17:20;;;;;;;3.90;1.25;;;;;;;;;;10360549;28;20037;-74
2024/04/04 16:22:23;;;;;;;3.50;1.27;;;;;;;;;;10356714;28;20034;-74
2024/04/04 16:27:27;;;;;;;5.15;1.48;;;;;;;;;;10356637;28;20049;-74
2024/04/04 16:32:29;;;;;;;4.25;1.30;;;;;;;;;;10356143;28;20121;-74
2024/04/04 16:37:32;;;;;;;3.38;0.90;;;;;;;;;;10355807;28;20449;-75
2024/04/04 16:42:35;;;;;;;2.30;1.13;;;;;;;;;;10358052;28;20034;-75
2024/04/04 16:47:40;;;;;;;5.50;1.23;;;;;;;;;;10338401;28;20038;-75
2024/04/04 16:52:42;;;;;;;3.42;0.90;;;;;;;;;;10357781;28;20042;-75
2024/04/04 16:57:46;;;;;;;3.78;0.82;;;;;;;;;;10362042;28;20041;-75
2024/04/04 17:02:49;;;;;;;2.40;0.52;;;;;;;;;;10337596;28;20184;-75
2024/04/04 17:07:51;;;;;;;3.20;1.10;;;;;;;;;;10361637;28;20045;-75
2024/04/04 17:12:55;;;;;;;3.80;1.00;;;;;;;;;;10359371;28;20187;-75
2024/04/04 17:17:57;;;;;;;1.42;0.52;;;;;;;;;;10352861;28;20045;-75
2024/04/04 17:23:00;;;;;;;2.95;1.10;;;;;;;;;;10354486;28;20049;-75
2024/04/04 17:28:04;;;;;;;4.05;1.00;;;;;;;;;;10361037;28;20038;-75
2024/04/04 17:33:08;;;;;;;2.83;0.85;;;;;;;;;;10357268;28;20821;-75
2024/04/04 17:38:10;;;;;;;3.35;0.90;;;;;;;;;;10357363;28;20038;-74
2024/04/04 17:43:14;;;;;;;1.58;0.80;;;;;;;;;;10363981;28;20036;-75
2024/04/04 17:48:16;;;;;;;1.17;0.60;;;;;;;;;;10358823;28;20057;-74
2024/04/04 17:53:20;;;;;;;2.15;0.70;;;;;;;;;;10376610;28;20037;-75
2024/04/04 17:58:24;;;;;;;3.55;0.90;;;;;;;;;;10361318;28;20132;-74
2024/04/04 18:03:27;;;;;;;4.43;1.20;;;;;;;;;;10356911;28;20054;-75
2024/04/04 18:08:29;;;;;;;3.03;1.20;;;;;;;;;;10354719;28;20072;-75
2024/04/04 18:13:33;;;;;;;3.28;1.10;;;;;;;;;;10354761;28;20038;-75
2024/04/04 18:18:35;;;;;;;3.83;0.98;;;;;;;;;;10367657;28;20050;-75
2024/04/04 18:23:39;;;;;;;3.53;1.10;;;;;;;;;;10357213;28;20659;-74
2024/04/04 18:28:43;;;;;;;2.88;0.80;;;;;;;;;;10334767;28;20046;-74
2024/04/04 18:33:45;;;;;;;3.13;0.73;;;;;;;;;;10350837;28;20049;-75
2024/04/04 18:38:48;;;;;;;1.42;0.70;;;;;;;;;;10335608;28;20053;-74
2024/04/04 18:43:53;;;;;;;2.55;0.60;;;;;;;;;;10352931;28;20037;-75
2024/04/04 18:48:55;;;;;;;1.27;0.68;;;;;;;;;;10360964;28;20053;-74
2024/04/04 18:53:57;;;;;;;1.40;0.73;;;;;;;;;;10358213;28;20937;-75
2024/04/04 18:59:01;;;;;;;0.95;0.60;;;;;;;;;;10351738;28;20054;-74
2024/04/04 19:04:04;;;;;;;2.35;0.80;;;;;;;;;;10356871;28;20040;-74
2024/04/04 19:09:07;;;;;;;1.63;0.85;;;;;;;;;;10351749;28;20061;-75
2024/04/04 19:14:11;;;;;;;1.75;0.73;;;;;;;;;;10347981;28;20053;-74
2024/04/04 19:19:14;;;;;;;1.98;0.80;;;;;;;;;;10349534;28;20050;-75
2024/04/04 19:24:17;;;;;;;2.17;1.10;;;;;;;;;;10337334;28;20049;-75
2024/04/04 19:29:21;;;;;;;1.23;0.70;;;;;;;;;;10362482;28;20054;-74
2024/04/04 19:34:23;;;;;;;2.00;1.00;;;;;;;;;;10338671;28;20045;-74
2024/04/04 19:39:26;;;;;;;2.33;0.90;;;;;;;;;;10334139;28;20042;-74
2024/04/04 19:44:29;;;;;;;1.42;0.90;;;;;;;;;;10351000;28;20054;-74
2024/04/04 19:49:32;;;;;;;1.80;0.63;;;;;;;;;;10362083;28;20057;-74
2024/04/04 19:54:35;;;;;;;1.15;0.65;;;;;;;;;;10349785;28;20049;-74
2024/04/04 19:59:38;;;;;;;0.82;0.43;;;;;;;;;;10349113;28;20583;-75
2024/04/04 20:04:41;;;;;;;1.23;0.40;;;;;;;;;;10336226;28;20557;-75
2024/04/04 20:09:43;;;;;;;1.23;0.60;;;;;;;;;;10351859;28;20034;-74
2024/04/04 20:14:47;;;;;;;1.80;0.50;;;;;;;;;;10350078;28;20045;-74
2024/04/04 20:19:50;;;;;;;1.83;0.50;;;;;;;;;;10354283;28;20048;-75
2024/04/04 20:24:52;;;;;;;1.27;0.50;;;;;;;;;;10359116;28;20049;-74
2024/04/04 20:29:56;;;;;;;1.30;0.68;;;;;;;;;;10339129;28;20127;-74
2024/04/04 20:34:58;;;;;;;2.15;0.88;;;;;;;;;;10359196;28;20083;-74
2024/04/04 20:40:01;;;;;;;1.25;0.68;;;;;;;;;;10358015;28;20042;-74
2024/04/04 20:45:05;;;;;;;2.63;0.60;;;;;;;;;;10354398;28;20045;-74
2024/04/04 20:50:08;;;;;;;1.88;0.40;;;;;;;;;;10357592;28;20048;-75
2024/04/04 20:55:11;;;;;;;1.55;0.68;;;;;;;;;;10347071;28;20050;-75
2024/04/04 21:00:14;;;;;;;2.38;0.47;;;;;;;;;;10358206;28;20424;-74
2024/04/04 21:05:19;;;;;;;2.45;0.60;;;;;;;;;;10359040;28;20057;-74
2024/04/04 21:10:21;;;;;;;2.95;0.65;;;;;;;;;;10359209;28;20046;-74
2024/04/04 21:15:26;;;;;;;2.42;0.55;;;;;;;;;;10363095;28;20071;-74
2024/04/04 21:20:28;;;;;;;0.60;0.40;;;;;;;;;;10356105;28;20045;-75
2024/04/04 21:25:32;;;;;;;2.10;0.60;;;;;;;;;;10360820;28;20130;-74
2024/04/04 21:30:35;;;;;;;1.15;0.45;;;;;;;;;;10368828;28;20045;-74
2024/04/04 21:35:43;;;;;;;2.53;0.70;;;;;;;;;;10371319;28;20083;-74
2024/04/04 21:40:45;;;;;;;1.35;0.47;;;;;;;;;;10365186;28;20100;-75
2024/04/04 21:45:49;;;;;;;1.65;0.60;;;;;;;;;;10362934;28;20101;-75
2024/04/04 21:50:55;;;;;;;2.85;0.50;;;;;;;;;;10359095;28;20046;-75
2024/04/04 21:55:58;;;;;;;;;;;;;;;;;;10361718;28;20050;-75
2024/04/04 22:01:04;;;;;;;0.82;0.40;;;;;;;;;;10367998;28;19928;-75
2024/04/04 22:06:06;;;;;;;1.35;0.52;;;;;;;;;;10358979;28;20513;-75
2024/04/04 22:11:09;;;;;;;1.55;0.52;;;;;;;;;;10363400;28;20414;-75
2024/04/04 22:16:12;;;;;;;2.40;0.55;;;;;;;;;;10359975;28;20060;-75
2024/04/04 22:21:15;;;;;;;1.27;0.63;;;;;;;;;;10358640;28;20042;-75
2024/04/04 22:26:17;;;;;;;4.00;0.82;;;;;;;;;;10358771;28;20046;-75
2024/04/04 22:31:21;;;;;;;2.45;0.80;;;;;;;;;;10356945;28;20046;-75
2024/04/04 22:36:23;;;;;;;1.88;0.68;;;;;;;;;;10354488;28;20228;-75
2024/04/04 22:41:26;;;;;;;1.35;0.77;;;;;;;;;;10355383;28;20054;-75
2024/04/04 22:46:30;;;;;;;1.42;0.75;;;;;;;;;;10352211;28;20452;-75
2024/04/04 22:51:33;;;;;;;1.55;0.80;;;;;;;;;;10354973;28;20050;-75
2024/04/04 22:56:35;;;;;;;2.88;0.98;;;;;;;;;;10336181;28;20050;-75
2024/04/04 23:01:39;;;;;;;1.35;0.70;;;;;;;;;;10349050;28;20073;-75
2024/04/04 23:06:41;;;;;;;1.88;0.68;;;;;;;;;;10333648;28;20061;-75
2024/04/04 23:11:43;;;;;;;2.92;1.02;;;;;;;;;;10358786;28;20298;-74
2024/04/04 23:16:47;;;;;;;3.25;1.00;;;;;;;;;;10353252;28;20502;-75
2024/04/04 23:21:49;;;;;;;2.63;0.70;;;;;;;;;;10358119;28;20045;-75
2024/04/04 23:26:52;;;;;;;1.67;0.70;;;;;;;;;;10358355;28;20259;-76
2024/04/04 23:31:57;;;;;;;2.05;0.68;;;;;;;;;;10357182;28;20427;-75
2024/04/04 23:36:59;;;;;;;2.95;0.77;;;;;;;;;;10352997;28;20490;-75
2024/04/04 23:42:01;;;;;;;1.95;0.57;;;;;;;;;;10356637;28;20048;-74
2024/04/04 23:47:05;;;;;;;2.83;0.93;;;;;;;;;;10338919;28;20042;-75
2024/04/04 23:52:08;;;;;;;1.38;0.77;;;;;;;;;;10357464;28;20045;-75
2024/04/04 23:57:10;;;;;;;2.65;0.95;;;;;;;;;;10359153;28;20393;-75
